createdAt,value
2022-11-26T00:00:33.190Z,3.47
2022-11-26T00:05:57.224Z,3.67
2022-11-26T00:11:20.463Z,3.77
2022-11-26T00:16:45.607Z,4.57
2022-11-26T00:22:16.412Z,3.40
2022-11-26T00:27:39.712Z,4.40
2022-11-26T00:33:04.377Z,3.07
2022-11-26T00:38:27.596Z,3.20
2022-11-26T00:43:50.803Z,2.83
2022-11-26T00:49:15.857Z,3.13
2022-11-26T00:54:39.344Z,3.10
2022-11-26T01:00:03.045Z,3.23
2022-11-26T01:05:30.552Z,3.33
2022-11-26T01:10:53.696Z,2.93
2022-11-26T01:16:20.753Z,3.53
2022-11-26T01:21:45.499Z,3.60
2022-11-26T01:27:10.835Z,3.47
2022-11-26T01:32:34.086Z,2.83
2022-11-26T01:37:58.915Z,3.23
2022-11-26T01:43:26.777Z,3.17
2022-11-26T01:48:51.348Z,4.30
2022-11-26T01:54:16.384Z,2.80
2022-11-26T01:59:42.304Z,2.93
2022-11-26T02:05:10.380Z,3.10
2022-11-26T02:10:35.085Z,4.37
2022-11-26T02:16:06.614Z,3.07
2022-11-26T02:21:30.445Z,4.20
2022-11-26T02:27:27.074Z,3.30
2022-11-26T02:32:59.206Z,3.20
2022-11-26T02:38:24.589Z,2.70
2022-11-26T02:43:48.037Z,2.73
2022-11-26T02:49:14.319Z,2.83
2022-11-26T02:54:37.965Z,3.57
2022-11-26T03:00:01.410Z,3.90
2022-11-26T03:05:27.074Z,3.90
2022-11-26T03:10:50.258Z,4.20
2022-11-26T03:16:13.431Z,3.73
2022-11-26T03:21:38.135Z,4.53
2022-11-26T03:27:01.326Z,4.00
2022-11-26T03:32:24.461Z,4.53
2022-11-26T03:37:49.137Z,4.63
2022-11-26T03:43:12.313Z,4.27
2022-11-26T03:48:35.615Z,4.53
2022-11-26T03:54:00.195Z,4.60
2022-11-26T03:59:23.384Z,4.23
2022-11-26T04:04:46.556Z,4.87
2022-11-26T04:10:11.587Z,5.17
2022-11-26T04:15:35.111Z,4.17
2022-11-26T04:20:58.364Z,5.57
2022-11-26T04:26:23.028Z,5.67
2022-11-26T04:31:46.321Z,5.50
2022-11-26T04:37:09.551Z,5.00
2022-11-26T04:42:34.452Z,4.23
2022-11-26T04:47:57.600Z,4.23
2022-11-26T04:53:22.068Z,3.73
2022-11-26T04:58:46.685Z,4.57
2022-11-26T05:04:09.984Z,4.07
2022-11-26T05:09:33.152Z,4.87
2022-11-26T05:14:57.685Z,5.20
2022-11-26T05:20:21.079Z,4.43
2022-11-26T05:25:44.236Z,6.03
2022-11-26T05:31:09.441Z,5.40
2022-11-26T05:36:32.713Z,5.63
2022-11-26T05:41:55.959Z,4.27
2022-11-26T05:47:20.553Z,4.53
2022-11-26T05:52:43.717Z,4.53
2022-11-26T05:58:09.686Z,5.07
2022-11-26T06:03:34.260Z,3.80
2022-11-26T06:08:57.577Z,3.43
2022-11-26T06:14:20.689Z,4.37
2022-11-26T06:19:45.324Z,3.80
2022-11-26T06:25:09.462Z,4.10
2022-11-26T06:30:32.783Z,3.93
2022-11-26T06:36:01.396Z,4.87
2022-11-26T06:41:24.573Z,5.73
2022-11-26T06:46:47.739Z,5.33
2022-11-26T06:52:12.319Z,5.20
2022-11-26T06:57:35.590Z,4.90
2022-11-26T07:02:58.820Z,5.53
2022-11-26T07:08:23.430Z,5.57
2022-11-26T07:13:46.679Z,5.43
2022-11-26T07:19:13.631Z,6.97
2022-11-26T07:24:38.440Z,5.17
2022-11-26T07:30:01.726Z,6.23
2022-11-26T07:35:25.162Z,7.03
2022-11-26T07:40:49.782Z,6.20
2022-11-26T07:46:15.082Z,6.50
2022-11-26T07:51:39.757Z,6.80
2022-11-26T07:57:04.469Z,6.63
2022-11-26T08:02:27.842Z,8.37
2022-11-26T08:07:51.259Z,6.80
2022-11-26T08:13:15.856Z,7.07
2022-11-26T08:18:39.311Z,8.50
2022-11-26T08:24:03.656Z,8.23
2022-11-26T08:29:28.547Z,9.27
2022-11-26T08:34:51.789Z,9.57
2022-11-26T08:40:15.163Z,8.30
2022-11-26T08:45:39.723Z,10.43
2022-11-26T08:51:04.453Z,8.27
2022-11-26T08:56:27.701Z,8.73
2022-11-26T09:01:52.405Z,8.93
2022-11-26T09:07:16.194Z,9.27
2022-11-26T09:12:39.445Z,9.97
2022-11-26T09:18:04.005Z,9.83
2022-11-26T09:23:27.190Z,10.10
2022-11-26T09:28:50.548Z,8.47
2022-11-26T09:34:15.198Z,9.00
2022-11-26T09:39:38.473Z,8.60
2022-11-26T09:45:06.105Z,9.77
2022-11-26T09:50:35.422Z,9.17
2022-11-26T09:55:58.604Z,8.77
2022-11-26T10:01:23.439Z,8.77
2022-11-26T10:06:55.084Z,10.63
2022-11-26T10:12:28.025Z,9.80
2022-11-26T10:17:58.512Z,9.20
2022-11-26T10:23:29.134Z,10.23
2022-11-26T10:28:54.403Z,9.93
2022-11-26T10:34:19.993Z,10.13
2022-11-26T10:39:46.530Z,8.33
2022-11-26T10:45:19.643Z,9.90
2022-11-26T10:50:48.088Z,9.10
2022-11-26T10:56:18.573Z,8.23
2022-11-26T11:01:42.541Z,8.97
2022-11-26T11:07:11.689Z,7.37
2022-11-26T11:12:37.083Z,7.90
2022-11-26T11:18:01.539Z,7.20
2022-11-26T11:23:45.806Z,8.83
2022-11-26T11:29:24.737Z,7.37
2022-11-26T11:34:47.943Z,7.47
2022-11-26T11:40:17.458Z,8.37
2022-11-26T11:45:45.533Z,6.80
2022-11-26T11:51:19.261Z,5.73
2022-11-26T11:56:45.676Z,6.03
2022-11-26T12:02:27.122Z,5.63
2022-11-26T12:07:55.417Z,6.50
2022-11-26T12:13:21.883Z,5.63
2022-11-26T12:18:49.404Z,7.00
2022-11-26T12:24:15.359Z,7.77
2022-11-26T12:29:41.625Z,6.07
2022-11-26T12:35:12.438Z,5.93
2022-11-26T12:40:37.728Z,6.57
2022-11-26T12:46:02.821Z,5.50
2022-11-26T12:51:34.723Z,5.63
2022-11-26T12:57:01.230Z,7.63
2022-11-26T13:02:26.338Z,5.50
2022-11-26T13:08:16.817Z,6.03
2022-11-26T13:13:44.215Z,5.03
2022-11-26T13:19:11.709Z,4.83
2022-11-26T13:24:48.816Z,5.60
2022-11-26T13:30:16.198Z,5.63
2022-11-26T13:36:00.315Z,4.57
2022-11-26T13:41:33.582Z,5.43
2022-11-26T13:46:58.328Z,4.77
2022-11-26T13:52:24.956Z,9.03
2022-11-26T13:57:53.204Z,4.83
2022-11-26T14:03:44.579Z,4.93
2022-11-26T14:09:07.895Z,4.13
2022-11-26T14:14:34.977Z,3.40
2022-11-26T14:20:02.465Z,5.50
2022-11-26T14:25:38.545Z,4.60
2022-11-26T14:31:15.180Z,4.00
2022-11-26T14:36:39.965Z,4.47
2022-11-26T14:42:06.317Z,4.27
2022-11-26T14:47:31.999Z,4.33
2022-11-26T14:52:59.509Z,4.63
2022-11-26T14:58:29.683Z,4.67
2022-11-26T15:04:02.067Z,4.97
2022-11-26T15:09:26.811Z,5.93
2022-11-26T15:14:54.624Z,5.13
2022-11-26T15:20:19.686Z,3.93
2022-11-26T15:25:48.202Z,4.13
2022-11-26T15:31:11.976Z,5.33
2022-11-26T15:36:39.145Z,4.63
2022-11-26T15:42:07.836Z,4.37
2022-11-26T15:47:31.258Z,4.17
2022-11-26T15:52:58.897Z,4.87
2022-11-26T15:58:25.665Z,5.72
2022-11-26T16:03:50.291Z,6.17
2022-11-26T16:09:28.167Z,4.63
2022-11-26T16:14:51.610Z,4.03
2022-11-26T16:20:20.415Z,4.60
2022-11-26T16:26:08.601Z,7.83
2022-11-26T16:31:32.297Z,4.40
2022-11-26T16:37:01.879Z,5.37
2022-11-26T16:42:26.540Z,6.57
2022-11-26T16:47:51.269Z,5.37
2022-11-26T16:53:14.421Z,5.60
2022-11-26T16:58:39.768Z,5.10
2022-11-26T17:04:03.001Z,5.23
2022-11-26T17:09:26.231Z,6.30
2022-11-26T17:20:17.538Z,5.30
2022-11-26T17:25:40.733Z,5.13
2022-11-26T17:31:05.467Z,3.30
2022-11-26T17:36:33.853Z,4.33
2022-11-26T17:41:59.761Z,4.83
2022-11-26T17:47:26.835Z,4.80
2022-11-26T17:52:50.162Z,5.13
2022-11-26T17:58:13.395Z,5.30
2022-11-26T18:03:37.975Z,4.13
2022-11-26T18:09:01.227Z,3.83
2022-11-26T18:14:24.806Z,4.10
2022-11-26T18:19:49.896Z,5.37
2022-11-26T18:25:13.653Z,4.63
2022-11-26T18:30:36.908Z,4.53
2022-11-26T18:36:01.636Z,2.73
2022-11-26T18:41:24.914Z,3.50
2022-11-26T18:46:48.581Z,2.93
2022-11-26T18:52:13.133Z,4.33
2022-11-26T18:57:36.599Z,3.70
2022-11-26T19:02:59.855Z,4.47
2022-11-26T19:08:24.820Z,5.23
2022-11-26T19:13:48.619Z,3.90
2022-11-26T19:19:12.005Z,6.43
2022-11-26T19:24:36.803Z,3.70
2022-11-26T19:29:59.941Z,3.90
2022-11-26T19:35:23.217Z,4.60
2022-11-26T19:40:47.863Z,3.93
2022-11-26T19:46:12.900Z,3.83
2022-11-26T19:51:36.243Z,3.67
2022-11-26T19:57:00.801Z,3.43
2022-11-26T20:02:24.064Z,4.43
2022-11-26T20:07:47.374Z,5.03
2022-11-26T20:13:12.582Z,5.47
2022-11-26T20:18:38.421Z,4.80
2022-11-26T20:24:03.481Z,4.53
2022-11-26T20:29:28.133Z,4.17
2022-11-26T20:34:51.334Z,4.47
2022-11-26T20:40:15.804Z,4.47
2022-11-26T20:45:40.641Z,4.63
2022-11-26T20:51:05.459Z,4.70
2022-11-26T20:56:29.708Z,5.67
2022-11-26T21:01:54.455Z,4.50
2022-11-26T21:07:17.756Z,5.30
2022-11-26T21:12:41.001Z,4.57
2022-11-26T21:18:06.024Z,4.77
2022-11-26T21:23:29.217Z,5.30
2022-11-26T21:28:53.543Z,4.17
2022-11-26T21:34:18.212Z,4.70
2022-11-26T21:39:41.658Z,5.37
2022-11-26T21:45:05.550Z,4.73
2022-11-26T21:50:30.216Z,6.67
2022-11-26T21:55:53.686Z,5.17
2022-11-26T22:01:19.116Z,5.83
2022-11-26T22:06:44.713Z,5.13
2022-11-26T22:12:08.673Z,4.70
2022-11-26T22:17:31.756Z,4.80
2022-11-26T22:22:56.357Z,5.87
2022-11-26T22:28:19.539Z,4.60
2022-11-26T22:33:42.799Z,5.23
2022-11-26T22:39:11.408Z,4.20
2022-11-26T22:44:35.015Z,4.70
2022-11-26T22:49:58.180Z,5.43
2022-11-26T22:55:23.369Z,6.23
2022-11-26T23:00:50.780Z,5.50
2022-11-26T23:06:15.835Z,4.60
2022-11-26T23:11:41.989Z,3.97
2022-11-26T23:17:05.172Z,4.00
2022-11-26T23:22:28.928Z,5.63
2022-11-26T23:27:53.517Z,3.43
2022-11-26T23:33:16.626Z,5.60
2022-11-26T23:38:41.151Z,4.53
2022-11-26T23:44:06.033Z,4.40
2022-11-26T23:49:29.254Z,4.23
2022-11-26T23:54:52.469Z,4.13
